createdAt,value
2024-03-05T00:01:13.079Z,20.73
2024-03-05T00:03:41.528Z,20.72
2024-03-05T00:06:08.663Z,20.73
2024-03-05T00:08:35.807Z,20.73
2024-03-05T00:11:04.294Z,20.69
2024-03-05T00:13:31.520Z,20.70
2024-03-05T00:15:58.724Z,20.72
2024-03-05T00:18:25.871Z,20.70
2024-03-05T00:20:53.022Z,20.73
2024-03-05T00:23:20.279Z,20.69
2024-03-05T00:25:47.555Z,20.69
2024-03-05T00:28:14.750Z,20.70
2024-03-05T00:30:41.951Z,20.69
2024-03-05T00:33:09.686Z,20.66
2024-03-05T00:35:36.860Z,20.67
2024-03-05T00:38:09.215Z,20.68
2024-03-05T00:40:39.473Z,20.64
2024-03-05T00:43:07.897Z,20.65
2024-03-05T00:45:35.044Z,20.66
2024-03-05T00:48:02.306Z,20.65
2024-03-05T00:50:29.539Z,20.64
2024-03-05T00:52:56.744Z,20.68
2024-03-05T00:55:24.047Z,20.64
2024-03-05T00:57:52.453Z,20.65
2024-03-05T01:00:20.875Z,20.63
2024-03-05T01:02:48.116Z,20.64
2024-03-05T01:05:15.282Z,20.63
2024-03-05T01:07:42.444Z,20.58
2024-03-05T01:10:10.738Z,20.58
2024-03-05T01:12:37.915Z,20.60
2024-03-05T01:15:05.206Z,20.61
2024-03-05T01:17:33.329Z,20.60
2024-03-05T01:20:00.590Z,20.59
2024-03-05T01:22:28.181Z,20.58
2024-03-05T01:24:55.352Z,20.59
2024-03-05T01:27:22.969Z,20.61
2024-03-05T01:29:51.165Z,20.59
2024-03-05T01:32:19.919Z,20.56
2024-03-05T01:34:49.721Z,20.54
2024-03-05T01:37:17.556Z,20.52
2024-03-05T01:39:44.724Z,20.55
2024-03-05T01:42:12.492Z,20.52
2024-03-05T01:44:39.640Z,20.54
2024-03-05T01:47:06.793Z,20.53
2024-03-05T01:49:34.659Z,20.52
2024-03-05T01:52:01.891Z,20.52
2024-03-05T01:54:30.242Z,20.51
2024-03-05T01:56:58.982Z,20.53
2024-03-05T01:59:26.190Z,20.53
2024-03-05T02:01:53.513Z,20.50
2024-03-05T02:04:20.994Z,20.50
2024-03-05T02:06:48.139Z,20.49
2024-03-05T02:09:16.345Z,20.49
2024-03-05T02:11:52.686Z,20.50
2024-03-05T02:14:25.038Z,20.50
2024-03-05T02:16:52.246Z,20.49
2024-03-05T02:19:19.532Z,20.47
2024-03-05T02:21:47.227Z,20.47
2024-03-05T02:24:14.368Z,20.44
2024-03-05T02:26:41.707Z,20.44
2024-03-05T02:29:10.347Z,20.45
2024-03-05T02:31:37.666Z,20.45
2024-03-05T02:34:05.931Z,20.41
2024-03-05T02:36:33.166Z,20.43
2024-03-05T02:39:00.306Z,20.40
2024-03-05T02:41:27.464Z,20.42
2024-03-05T02:43:54.626Z,20.40
2024-03-05T02:46:21.822Z,20.39
2024-03-05T02:48:49.036Z,20.40
2024-03-05T02:51:16.292Z,20.40
2024-03-05T02:53:43.410Z,20.42
2024-03-05T02:56:11.585Z,20.40
2024-03-05T02:58:38.928Z,20.38
2024-03-05T03:01:08.682Z,20.40
2024-03-05T03:03:36.134Z,20.39
2024-03-05T03:06:03.749Z,20.38
2024-03-05T03:08:31.016Z,20.37
2024-03-05T03:10:58.282Z,20.39
2024-03-05T03:13:25.576Z,20.36
2024-03-05T03:15:52.755Z,20.37
2024-03-05T03:18:21.313Z,20.37
2024-03-05T03:20:48.507Z,20.34
2024-03-05T03:23:15.624Z,20.33
2024-03-05T03:25:42.798Z,20.35
2024-03-05T03:28:09.963Z,20.34
2024-03-05T03:30:37.142Z,20.34
2024-03-05T03:33:05.818Z,20.31
2024-03-05T03:35:33.342Z,20.35
2024-03-05T03:38:01.824Z,20.32
2024-03-05T03:40:34.453Z,20.33
2024-03-05T03:43:01.815Z,20.33
2024-03-05T03:45:28.944Z,20.30
2024-03-05T03:47:56.150Z,20.28
2024-03-05T03:50:23.482Z,20.31
2024-03-05T03:52:50.789Z,20.27
2024-03-05T03:55:18.037Z,20.27
2024-03-05T03:57:45.552Z,20.31
2024-03-05T04:00:17.715Z,20.32
2024-03-05T04:02:45.012Z,20.31
2024-03-05T04:05:12.500Z,20.28
2024-03-05T04:07:39.652Z,20.30
2024-03-05T04:10:07.325Z,20.29
2024-03-05T04:12:34.700Z,20.28
2024-03-05T04:15:01.901Z,20.26
2024-03-05T04:17:29.074Z,20.24
2024-03-05T04:19:57.238Z,20.25
2024-03-05T04:22:24.784Z,20.25
2024-03-05T04:24:56.618Z,20.23
2024-03-05T04:27:25.222Z,20.23
2024-03-05T04:29:57.938Z,20.21
2024-03-05T04:32:27.770Z,20.23
2024-03-05T04:35:01.606Z,20.21
2024-03-05T04:37:30.065Z,20.22
2024-03-05T04:39:57.632Z,20.20
2024-03-05T04:42:25.913Z,20.18
2024-03-05T04:44:54.265Z,20.16
2024-03-05T04:47:22.507Z,20.17
2024-03-05T04:49:50.158Z,20.17
2024-03-05T04:52:17.653Z,20.17
2024-03-05T04:54:45.971Z,20.16
2024-03-05T04:57:13.128Z,20.17
2024-03-05T04:59:41.260Z,20.15
2024-03-05T05:02:08.475Z,20.13
2024-03-05T05:04:38.776Z,20.13
2024-03-05T05:07:08.851Z,20.11
2024-03-05T05:09:39.378Z,20.13
2024-03-05T05:12:06.971Z,20.12
2024-03-05T05:14:36.730Z,20.09
2024-03-05T05:17:05.962Z,20.11
2024-03-05T05:19:33.241Z,20.09
2024-03-05T05:22:00.411Z,20.15
2024-03-05T05:24:27.592Z,20.11
2024-03-05T05:26:54.810Z,20.10
2024-03-05T05:29:31.585Z,20.10
2024-03-05T05:32:08.597Z,20.15
2024-03-05T05:34:35.950Z,20.15
2024-03-05T05:37:03.124Z,20.12
2024-03-05T05:39:30.343Z,20.14
2024-03-05T05:41:57.607Z,20.24
2024-03-05T05:44:24.767Z,20.23
2024-03-05T05:46:52.103Z,20.27
2024-03-05T05:49:22.193Z,20.24
2024-03-05T05:51:52.550Z,20.23
2024-03-05T05:54:22.641Z,20.21
2024-03-05T05:56:50.428Z,20.24
2024-03-05T05:59:18.636Z,20.25
2024-03-05T06:01:46.256Z,20.21
2024-03-05T06:04:13.664Z,20.20
2024-03-05T06:06:40.808Z,20.27
2024-03-05T06:09:10.683Z,20.22
2024-03-05T06:11:38.322Z,20.21
2024-03-05T06:14:06.074Z,20.25
2024-03-05T06:16:33.590Z,20.25
2024-03-05T06:19:01.038Z,20.26
2024-03-05T06:21:28.319Z,20.24
2024-03-05T06:23:55.534Z,20.19
2024-03-05T06:26:22.677Z,20.18
2024-03-05T06:28:49.933Z,20.25
2024-03-05T06:31:17.422Z,20.27
2024-03-05T06:33:45.272Z,20.29
2024-03-05T06:36:13.443Z,20.30
2024-03-05T06:38:40.983Z,20.33
2024-03-05T06:41:09.610Z,20.33
2024-03-05T06:43:42.598Z,20.32
2024-03-05T06:46:11.149Z,20.34
2024-03-05T06:48:43.155Z,20.36
2024-03-05T06:51:27.588Z,20.40
2024-03-05T06:54:13.450Z,20.41
2024-03-05T06:56:41.141Z,20.42
2024-03-05T06:59:11.160Z,20.44
2024-03-05T07:01:39.904Z,20.44
2024-03-05T07:04:07.402Z,20.48
2024-03-05T07:06:35.164Z,20.53
2024-03-05T07:09:05.508Z,20.53
2024-03-05T07:11:32.792Z,20.57
2024-03-05T07:14:00.200Z,20.63
2024-03-05T07:16:27.463Z,20.74
2024-03-05T07:18:54.949Z,20.85
2024-03-05T07:21:23.364Z,20.99
2024-03-05T07:23:51.586Z,21.09
2024-03-05T07:26:19.612Z,21.25
2024-03-05T07:28:47.119Z,21.37
2024-03-05T07:31:14.825Z,21.43
2024-03-05T07:33:42.358Z,21.57
2024-03-05T07:36:09.568Z,21.71
2024-03-05T07:38:36.826Z,21.76
2024-03-05T07:41:13.365Z,21.88
2024-03-05T07:43:45.394Z,21.95
2024-03-05T07:46:12.799Z,22.01
2024-03-05T07:48:40.085Z,22.20
2024-03-05T07:51:07.226Z,22.33
2024-03-05T07:53:34.370Z,22.45
2024-03-05T07:56:01.582Z,22.64
2024-03-05T07:58:28.832Z,22.72
2024-03-05T08:00:56.007Z,22.86
2024-03-05T08:03:23.208Z,22.98
2024-03-05T08:05:51.798Z,23.06
2024-03-05T08:08:19.010Z,23.17
2024-03-05T08:10:50.112Z,23.25
2024-03-05T08:13:17.405Z,23.41
2024-03-05T08:15:44.993Z,23.35
2024-03-05T08:18:13.929Z,23.44
2024-03-05T08:20:41.292Z,23.56
2024-03-05T08:23:08.885Z,23.45
2024-03-05T08:25:36.283Z,23.30
2024-03-05T08:28:07.112Z,23.33
2024-03-05T08:30:34.598Z,23.36
2024-03-05T08:33:05.904Z,23.33
2024-03-05T08:35:33.203Z,23.36
2024-03-05T08:38:01.238Z,23.44
2024-03-05T08:40:33.599Z,23.43
2024-03-05T08:43:04.310Z,23.34
2024-03-05T08:45:31.933Z,23.42
2024-03-05T08:47:59.451Z,23.42
2024-03-05T08:50:29.559Z,23.36
2024-03-05T08:52:56.954Z,23.37
2024-03-05T08:55:24.466Z,23.47
2024-03-05T08:57:52.992Z,23.58
2024-03-05T09:00:32.513Z,23.35
2024-03-05T09:03:11.467Z,23.66
2024-03-05T09:05:39.366Z,23.74
2024-03-05T09:08:07.272Z,21.22
2024-03-05T09:10:34.961Z,20.22
2024-03-05T09:13:02.491Z,19.57
2024-03-05T09:15:30.469Z,19.45
2024-03-05T09:17:57.673Z,20.15
2024-03-05T09:20:24.824Z,22.08
2024-03-05T09:22:52.103Z,23.02
2024-03-05T09:25:19.410Z,22.90
2024-03-05T09:27:46.914Z,23.07
2024-03-05T09:30:16.162Z,23.36
2024-03-05T09:32:44.528Z,23.00
2024-03-05T09:35:14.045Z,23.32
2024-03-05T09:37:42.763Z,23.26
2024-03-05T09:40:18.448Z,22.95
2024-03-05T09:42:46.492Z,22.71
2024-03-05T09:45:17.305Z,23.19
2024-03-05T09:47:44.983Z,22.99
2024-03-05T09:50:13.613Z,22.81
2024-03-05T09:52:41.042Z,22.93
2024-03-05T09:55:09.577Z,23.13
2024-03-05T09:57:36.765Z,22.87
2024-03-05T10:00:05.281Z,23.05
2024-03-05T10:02:32.626Z,22.84
2024-03-05T10:05:02.976Z,22.90
2024-03-05T10:07:30.412Z,22.96
2024-03-05T10:10:08.463Z,22.77
2024-03-05T10:12:35.799Z,22.79
2024-03-05T10:15:13.310Z,22.75
2024-03-05T10:17:42.144Z,22.78
2024-03-05T10:20:11.332Z,22.81
2024-03-05T10:22:38.556Z,22.69
2024-03-05T10:25:13.772Z,22.65
2024-03-05T10:27:45.474Z,22.59
2024-03-05T10:30:25.714Z,22.64
2024-03-05T10:32:54.172Z,22.73
2024-03-05T10:35:21.587Z,22.66
2024-03-05T10:37:55.826Z,22.70
2024-03-05T10:40:23.607Z,22.71
2024-03-05T10:42:52.392Z,22.70
2024-03-05T10:45:24.347Z,22.67
2024-03-05T10:47:51.605Z,22.61
2024-03-05T10:50:18.966Z,22.56
2024-03-05T10:52:47.490Z,22.51
2024-03-05T10:55:14.848Z,22.59
2024-03-05T10:58:03.509Z,22.62
2024-03-05T11:00:33.770Z,22.60
2024-03-05T11:03:01.327Z,22.58
2024-03-05T11:05:28.607Z,22.50
2024-03-05T11:07:55.848Z,22.48
2024-03-05T11:10:23.086Z,22.50
2024-03-05T11:12:50.241Z,22.55
2024-03-05T11:15:17.440Z,22.62
2024-03-05T11:17:44.681Z,22.62
2024-03-05T11:20:31.788Z,22.59
2024-03-05T11:22:59.975Z,22.58
2024-03-05T11:25:33.189Z,22.53
2024-03-05T11:28:00.350Z,22.50
2024-03-05T11:30:30.166Z,22.50
2024-03-05T11:32:57.414Z,22.51
2024-03-05T11:35:26.098Z,22.52
2024-03-05T11:37:56.837Z,22.49
2024-03-05T11:40:30.756Z,22.46
2024-03-05T11:42:58.685Z,22.46
2024-03-05T11:45:47.963Z,22.43
2024-03-05T11:48:19.690Z,22.42
2024-03-05T11:50:47.522Z,22.44
2024-03-05T11:53:14.732Z,22.42
2024-03-05T11:55:42.095Z,22.42
2024-03-05T11:58:10.709Z,22.46
2024-03-05T12:00:38.194Z,22.44
2024-03-05T12:03:05.347Z,22.46
2024-03-05T12:05:32.514Z,22.51
2024-03-05T12:08:00.966Z,22.48
2024-03-05T12:10:32.972Z,22.45
2024-03-05T12:13:03.215Z,22.48
2024-03-05T12:15:30.582Z,22.49
2024-03-05T12:17:58.093Z,22.48
2024-03-05T12:20:25.433Z,22.44
2024-03-05T12:22:55.687Z,22.42
2024-03-05T12:25:24.493Z,22.41
2024-03-05T12:27:51.678Z,22.39
2024-03-05T12:30:20.844Z,22.42
2024-03-05T12:32:55.390Z,22.42
2024-03-05T12:35:22.585Z,22.38
2024-03-05T12:37:51.629Z,22.36
2024-03-05T12:40:19.273Z,22.32
2024-03-05T12:42:46.654Z,22.31
2024-03-05T12:45:16.037Z,22.30
2024-03-05T12:47:43.732Z,22.26
2024-03-05T12:50:11.368Z,22.22
2024-03-05T12:52:38.696Z,22.21
2024-03-05T12:55:06.429Z,22.24
2024-03-05T12:57:44.555Z,22.23
2024-03-05T13:00:15.257Z,22.24
2024-03-05T13:02:48.360Z,22.23
2024-03-05T13:05:21.938Z,22.26
2024-03-05T13:07:53.463Z,22.27
2024-03-05T13:10:22.530Z,22.23
2024-03-05T13:12:56.182Z,22.22
2024-03-05T13:15:24.248Z,22.21
2024-03-05T13:17:57.025Z,22.18
2024-03-05T13:20:28.694Z,22.13
2024-03-05T13:22:56.164Z,22.12
2024-03-05T13:25:26.794Z,22.09
2024-03-05T13:27:53.979Z,22.05
2024-03-05T13:30:24.721Z,22.05
2024-03-05T13:35:26.459Z,22.04
2024-03-05T13:37:53.657Z,22.01
2024-03-05T13:40:22.101Z,22.01
2024-03-05T13:42:49.335Z,21.98
2024-03-05T13:45:17.279Z,21.95
2024-03-05T13:47:44.618Z,21.93
2024-03-05T13:50:12.999Z,21.91
2024-03-05T13:52:43.711Z,21.87
2024-03-05T13:55:13.638Z,21.85
2024-03-05T13:57:41.056Z,21.83
2024-03-05T14:00:09.184Z,21.82
2024-03-05T14:02:37.097Z,21.79
2024-03-05T14:05:04.766Z,21.77
2024-03-05T14:07:32.291Z,21.76
2024-03-05T14:09:59.476Z,21.74
2024-03-05T14:12:32.385Z,21.73
2024-03-05T14:15:02.813Z,21.71
2024-03-05T14:17:30.045Z,21.70
2024-03-05T14:19:57.247Z,21.70
2024-03-05T14:22:24.722Z,21.69
2024-03-05T14:24:53.834Z,21.69
2024-03-05T14:27:20.956Z,21.70
2024-03-05T14:29:49.435Z,21.73
2024-03-05T14:32:18.261Z,21.71
2024-03-05T14:34:45.445Z,21.71
2024-03-05T14:37:12.700Z,21.71
2024-03-05T14:39:42.412Z,21.70
2024-03-05T14:42:11.593Z,21.63
2024-03-05T14:44:40.618Z,21.65
2024-03-05T14:47:07.831Z,21.61
2024-03-05T14:49:35.056Z,21.61
2024-03-05T14:52:02.278Z,21.61
2024-03-05T14:54:29.473Z,21.62
2024-03-05T14:56:56.694Z,21.60
2024-03-05T14:59:23.877Z,21.61
2024-03-05T15:01:53.243Z,21.62
2024-03-05T15:04:20.542Z,21.58
2024-03-05T15:06:47.705Z,21.59
2024-03-05T15:09:14.909Z,21.54
2024-03-05T15:11:42.166Z,21.57
2024-03-05T15:14:09.603Z,21.55
2024-03-05T15:16:37.669Z,21.49
2024-03-05T15:19:04.939Z,21.48
2024-03-05T15:21:32.116Z,21.49
2024-03-05T15:23:59.259Z,21.48
2024-03-05T15:26:26.404Z,21.47
2024-03-05T15:28:54.679Z,21.43
2024-03-05T15:31:21.849Z,21.39
2024-03-05T15:33:49.023Z,21.44
2024-03-05T15:36:16.906Z,21.46
2024-03-05T15:38:44.110Z,21.42
2024-03-05T15:41:11.436Z,21.36
2024-03-05T15:43:43.877Z,21.36
2024-03-05T15:46:11.045Z,21.37
2024-03-05T15:48:38.181Z,21.35
2024-03-05T15:51:08.714Z,21.35
2024-03-05T15:53:35.907Z,21.37
2024-03-05T15:56:05.466Z,21.33
2024-03-05T15:58:41.933Z,21.31
2024-03-05T16:01:12.907Z,21.31
2024-03-05T16:03:56.792Z,21.31
2024-03-05T16:06:33.747Z,21.27
2024-03-05T16:09:01.229Z,21.27
2024-03-05T16:11:28.525Z,21.25
2024-03-05T16:13:55.802Z,21.26
2024-03-05T16:16:25.535Z,21.24
2024-03-05T16:18:52.726Z,21.21
2024-03-05T16:21:21.327Z,21.17
2024-03-05T16:23:48.624Z,21.18
2024-03-05T16:26:15.813Z,21.17
2024-03-05T16:28:43.074Z,21.16
2024-03-05T16:31:12.362Z,21.18
2024-03-05T16:33:45.125Z,21.16
2024-03-05T16:36:12.747Z,21.18
2024-03-05T16:38:40.750Z,21.11
2024-03-05T16:41:07.933Z,21.07
2024-03-05T16:43:36.081Z,21.06
2024-03-05T16:46:03.541Z,21.06
2024-03-05T16:48:30.699Z,21.04
2024-03-05T16:50:59.166Z,21.08
2024-03-05T16:53:26.356Z,21.04
2024-03-05T16:55:53.867Z,21.05
2024-03-05T16:58:21.133Z,21.02
2024-03-05T17:00:56.014Z,21.00
2024-03-05T17:03:27.811Z,21.02
2024-03-05T17:05:55.301Z,20.99
2024-03-05T17:08:24.708Z,20.97
2024-03-05T17:10:52.799Z,20.99
2024-03-05T17:13:22.475Z,20.99
2024-03-05T17:15:56.984Z,21.01
2024-03-05T17:18:25.908Z,20.93
2024-03-05T17:20:54.565Z,20.93
2024-03-05T17:23:25.940Z,20.96
2024-03-05T17:25:55.769Z,20.88
2024-03-05T17:28:23.418Z,20.91
2024-03-05T17:30:50.554Z,20.90
2024-03-05T17:33:17.745Z,20.92
2024-03-05T17:35:44.974Z,20.93
2024-03-05T17:38:13.916Z,20.92
2024-03-05T17:40:41.698Z,20.91
2024-03-05T17:43:09.190Z,20.90
2024-03-05T17:45:36.727Z,20.87
2024-03-05T17:48:06.944Z,20.88
2024-03-05T17:50:35.873Z,20.86
2024-03-05T17:53:05.904Z,20.84
2024-03-05T17:55:34.094Z,20.83
2024-03-05T17:58:03.321Z,20.83
2024-03-05T18:00:41.563Z,20.83
2024-03-05T18:03:11.548Z,20.82
2024-03-05T18:05:38.925Z,20.82
2024-03-05T18:08:06.192Z,20.75
2024-03-05T18:10:35.818Z,20.79
2024-03-05T18:13:05.934Z,20.80
2024-03-05T18:15:33.486Z,20.77
2024-03-05T18:18:02.381Z,20.78
2024-03-05T18:20:29.972Z,20.79
2024-03-05T18:23:00.346Z,20.76
2024-03-05T18:25:34.905Z,20.77
2024-03-05T18:28:02.985Z,20.75
2024-03-05T18:30:30.134Z,20.74
2024-03-05T18:32:57.410Z,20.73
2024-03-05T18:35:24.853Z,20.71
2024-03-05T18:37:52.549Z,20.75
2024-03-05T18:40:22.218Z,20.70
2024-03-05T18:42:50.177Z,20.69
2024-03-05T18:45:17.575Z,20.68
2024-03-05T18:47:54.530Z,20.67
2024-03-05T18:50:31.146Z,20.68
2024-03-05T18:52:58.740Z,20.68
2024-03-05T18:55:27.752Z,20.68
2024-03-05T18:57:55.003Z,20.67
2024-03-05T19:00:22.231Z,20.67
2024-03-05T19:02:49.447Z,20.60
2024-03-05T19:05:17.465Z,20.52
2024-03-05T19:07:45.256Z,20.51
2024-03-05T19:10:12.467Z,20.48
2024-03-05T19:12:42.690Z,20.45
2024-03-05T19:15:11.069Z,20.47
2024-03-05T19:17:38.619Z,20.49
2024-03-05T19:20:06.179Z,20.50
2024-03-05T19:22:33.501Z,20.45
2024-03-05T19:25:01.141Z,20.46
2024-03-05T19:27:28.274Z,20.47
2024-03-05T19:29:55.761Z,20.46
2024-03-05T19:32:26.064Z,20.43
2024-03-05T19:34:53.308Z,20.55
2024-03-05T19:37:20.487Z,20.55
2024-03-05T19:39:47.709Z,20.61
2024-03-05T19:42:15.072Z,20.56
2024-03-05T19:44:42.285Z,20.57
2024-03-05T19:47:09.717Z,20.60
2024-03-05T19:49:37.637Z,20.58
2024-03-05T19:52:04.949Z,20.57
2024-03-05T19:54:32.561Z,20.58
2024-03-05T19:56:59.699Z,20.53
2024-03-05T19:59:26.911Z,20.55
2024-03-05T20:01:54.925Z,20.54
2024-03-05T20:04:22.288Z,20.51
2024-03-05T20:06:49.887Z,20.52
2024-03-05T20:09:17.548Z,20.51
2024-03-05T20:11:44.870Z,20.49
2024-03-05T20:14:14.603Z,20.50
2024-03-05T20:16:44.030Z,20.47
2024-03-05T20:19:11.785Z,20.51
2024-03-05T20:21:40.431Z,20.49
2024-03-05T20:24:07.597Z,20.49
2024-03-05T20:26:34.753Z,20.46
2024-03-05T20:29:03.730Z,20.44
2024-03-05T20:31:30.959Z,20.43
2024-03-05T20:33:59.376Z,20.44
2024-03-05T20:36:26.526Z,20.42
2024-03-05T20:38:58.967Z,20.35
2024-03-05T20:41:26.115Z,20.29
2024-03-05T20:43:53.535Z,20.24
2024-03-05T20:46:20.732Z,20.28
2024-03-05T20:48:47.934Z,20.21
2024-03-05T20:51:15.089Z,20.20
2024-03-05T20:53:43.563Z,20.31
2024-03-05T20:56:10.964Z,20.35
2024-03-05T20:58:38.865Z,20.38
2024-03-05T21:01:07.360Z,20.36
2024-03-05T21:03:36.790Z,20.38
2024-03-05T21:06:04.316Z,20.37
2024-03-05T21:08:32.543Z,20.35
2024-03-05T21:11:02.448Z,20.33
2024-03-05T21:13:29.684Z,20.34
2024-03-05T21:15:56.902Z,20.36
2024-03-05T21:18:24.712Z,20.30
2024-03-05T21:20:51.886Z,20.31
2024-03-05T21:23:19.315Z,20.29
2024-03-05T21:26:02.820Z,20.30
2024-03-05T21:28:33.972Z,20.23
2024-03-05T21:31:01.184Z,20.24
2024-03-05T21:33:28.352Z,20.25
2024-03-05T21:35:55.497Z,20.28
2024-03-05T21:38:22.627Z,20.27
2024-03-05T21:40:49.800Z,20.24
2024-03-05T21:43:17.058Z,20.25
2024-03-05T21:45:44.207Z,20.28
2024-03-05T21:48:11.368Z,20.24
2024-03-05T21:50:38.746Z,20.23
2024-03-05T21:53:05.918Z,20.24
2024-03-05T21:55:33.124Z,20.22
2024-03-05T21:58:00.285Z,20.15
2024-03-05T22:00:27.780Z,20.18
2024-03-05T22:02:54.957Z,20.18
2024-03-05T22:05:23.272Z,20.15
2024-03-05T22:07:50.481Z,20.19
2024-03-05T22:10:17.688Z,20.19
2024-03-05T22:12:45.848Z,20.12
2024-03-05T22:15:12.984Z,20.19
2024-03-05T22:17:41.096Z,20.15
2024-03-05T22:20:10.350Z,20.14
2024-03-05T22:22:38.272Z,20.08
2024-03-05T22:25:07.515Z,20.09
2024-03-05T22:27:35.012Z,20.11
2024-03-05T22:30:02.412Z,20.12
2024-03-05T22:32:29.783Z,20.11
2024-03-05T22:34:58.932Z,20.09
2024-03-05T22:37:26.346Z,20.06
2024-03-05T22:39:53.940Z,20.07
2024-03-05T22:42:21.082Z,20.10
2024-03-05T22:44:48.403Z,20.07
2024-03-05T22:47:16.002Z,20.06
2024-03-05T22:49:44.241Z,20.05
2024-03-05T22:52:13.622Z,20.05
2024-03-05T22:54:40.754Z,20.05
2024-03-05T22:57:08.035Z,20.07
2024-03-05T22:59:35.248Z,20.01
2024-03-05T23:02:02.500Z,20.05
2024-03-05T23:04:29.701Z,20.01
2024-03-05T23:06:56.854Z,20.04
2024-03-05T23:09:23.981Z,20.05
2024-03-05T23:11:51.194Z,20.04
2024-03-05T23:14:18.482Z,20.01
2024-03-05T23:16:47.590Z,20.01
2024-03-05T23:19:14.743Z,19.97
2024-03-05T23:21:41.897Z,20.00
2024-03-05T23:24:10.245Z,19.97
2024-03-05T23:26:37.526Z,19.99
2024-03-05T23:29:04.776Z,19.91
2024-03-05T23:31:31.973Z,19.97
2024-03-05T23:33:59.155Z,19.95
2024-03-05T23:36:26.291Z,19.93
2024-03-05T23:38:53.449Z,19.92
2024-03-05T23:41:29.014Z,19.94
2024-03-05T23:43:59.443Z,19.92
2024-03-05T23:46:26.694Z,19.91
2024-03-05T23:48:53.915Z,19.91
2024-03-05T23:51:21.047Z,19.93
2024-03-05T23:53:48.194Z,19.91
2024-03-05T23:56:15.508Z,19.88
2024-03-05T23:58:42.743Z,19.92
